sensor_id;sensor_type;location;lat;lon;timestamp;pressure;altitude;pressure_sealevel;temperature;humidity
69630;BME280;56857;52.212;5.496;2023-04-06T00:00:03;101896.25;;;4.67;100.00
69630;BME280;56857;52.212;5.496;2023-04-06T00:02:29;101893.84;;;4.63;100.00
69630;BME280;56857;52.212;5.496;2023-04-06T00:04:54;101894.88;;;4.61;100.00
69630;BME280;56857;52.212;5.496;2023-04-06T00:07:19;101898.44;;;4.60;100.00
69630;BME280;56857;52.212;5.496;2023-04-06T00:09:44;101893.31;;;4.58;100.00
69630;BME280;56857;52.212;5.496;2023-04-06T00:12:10;101891.63;;;4.57;100.00
69630;BME280;56857;52.212;5.496;2023-04-06T00:14:35;101890.88;;;4.55;100.00
69630;BME280;56857;52.212;5.496;2023-04-06T00:17:00;101890.13;;;4.53;100.00
69630;BME280;56857;52.212;5.496;2023-04-06T00:19:26;101894.66;;;4.51;100.00
69630;BME280;56857;52.212;5.496;2023-04-06T00:21:51;101891.28;;;4.49;100.00
69630;BME280;56857;52.212;5.496;2023-04-06T00:24:16;101890.66;;;4.46;100.00
69630;BME280;56857;52.212;5.496;2023-04-06T00:26:42;101881.94;;;4.45;100.00
69630;BME280;56857;52.212;5.496;2023-04-06T00:29:07;101880.38;;;4.43;100.00
69630;BME280;56857;52.212;5.496;2023-04-06T00:31:32;101880.66;;;4.38;100.00
69630;BME280;56857;52.212;5.496;2023-04-06T00:33:59;101879.94;;;4.36;100.00
69630;BME280;56857;52.212;5.496;2023-04-06T00:36:24;101871.31;;;4.34;100.00
69630;BME280;56857;52.212;5.496;2023-04-06T00:38:49;101874.16;;;4.31;100.00
69630;BME280;56857;52.212;5.496;2023-04-06T00:41:15;101868.28;;;4.27;100.00
69630;BME280;56857;52.212;5.496;2023-04-06T00:43:40;101866.81;;;4.23;100.00
69630;BME280;56857;52.212;5.496;2023-04-06T00:46:07;101858.19;;;4.21;100.00
69630;BME280;56857;52.212;5.496;2023-04-06T00:48:32;101857.56;;;4.17;100.00
69630;BME280;56857;52.212;5.496;2023-04-06T00:50:58;101854.31;;;4.14;100.00
69630;BME280;56857;52.212;5.496;2023-04-06T00:53:23;101848.31;;;4.12;100.00
69630;BME280;56857;52.212;5.496;2023-04-06T00:55:48;101850.22;;;4.10;100.00
69630;BME280;56857;52.212;5.496;2023-04-06T00:58:14;101844.31;;;4.06;100.00
69630;BME280;56857;52.212;5.496;2023-04-06T01:00:39;101834.88;;;4.04;100.00
69630;BME280;56857;52.212;5.496;2023-04-06T01:03:04;101842.84;;;4.02;100.00
69630;BME280;56857;52.212;5.496;2023-04-06T01:05:30;101839.47;;;4.00;100.00
69630;BME280;56857;52.212;5.496;2023-04-06T01:07:57;101837.72;;;4.01;100.00
69630;BME280;56857;52.212;5.496;2023-04-06T01:10:28;101833.38;;;4.00;100.00
69630;BME280;56857;52.212;5.496;2023-04-06T01:12:53;101828.13;;;4.00;100.00
69630;BME280;56857;52.212;5.496;2023-04-06T01:15:19;101826.34;;;4.00;100.00
69630;BME280;56857;52.212;5.496;2023-04-06T01:17:45;101813.22;;;4.00;100.00
69630;BME280;56857;52.212;5.496;2023-04-06T01:20:10;101820.19;;;4.01;100.00
69630;BME280;56857;52.212;5.496;2023-04-06T01:22:36;101817.56;;;4.01;100.00
69630;BME280;56857;52.212;5.496;2023-04-06T01:25:01;101818.38;;;4.02;100.00
69630;BME280;56857;52.212;5.496;2023-04-06T01:27:27;101815.00;;;4.00;100.00
69630;BME280;56857;52.212;5.496;2023-04-06T01:29:52;101813.22;;;4.00;100.00
69630;BME280;56857;52.212;5.496;2023-04-06T01:32:17;101803.59;;;4.01;100.00
69630;BME280;56857;52.212;5.496;2023-04-06T01:34:43;101803.69;;;3.99;100.00
69630;BME280;56857;52.212;5.496;2023-04-06T01:37:08;101807.25;;;3.98;100.00
69630;BME280;56857;52.212;5.496;2023-04-06T01:39:33;101809.88;;;3.98;100.00
69630;BME280;56857;52.212;5.496;2023-04-06T01:41:58;101804.84;;;3.95;100.00
69630;BME280;56857;52.212;5.496;2023-04-06T01:44:24;101799.69;;;3.93;100.00
69630;BME280;56857;52.212;5.496;2023-04-06T01:46:49;101797.91;;;3.94;100.00
69630;BME280;56857;52.212;5.496;2023-04-06T01:49:14;101786.47;;;3.95;100.00
69630;BME280;56857;52.212;5.496;2023-04-06T01:51:40;101785.53;;;3.96;100.00
69630;BME280;56857;52.212;5.496;2023-04-06T01:54:05;101785.44;;;3.98;100.00
69630;BME280;56857;52.212;5.496;2023-04-06T01:56:30;101782.06;;;3.95;100.00
69630;BME280;56857;52.212;5.496;2023-04-06T01:58:56;101780.59;;;3.91;100.00
69630;BME280;56857;52.212;5.496;2023-04-06T02:01:21;101779.03;;;3.89;100.00
69630;BME280;56857;52.212;5.496;2023-04-06T02:03:47;101779.22;;;3.86;100.00
69630;BME280;56857;52.212;5.496;2023-04-06T02:06:12;101771.44;;;3.84;100.00
69630;BME280;56857;52.212;5.496;2023-04-06T02:08:38;101764.53;;;3.83;100.00
69630;BME280;56857;52.212;5.496;2023-04-06T02:11:03;101761.16;;;3.81;100.00
69630;BME280;56857;52.212;5.496;2023-04-06T02:13:29;101763.16;;;3.78;100.00
69630;BME280;56857;52.212;5.496;2023-04-06T02:15:54;101764.09;;;3.77;100.00
69630;BME280;56857;52.212;5.496;2023-04-06T02:18:19;101764.84;;;3.79;100.00
69630;BME280;56857;52.212;5.496;2023-04-06T02:20:45;101760.25;;;3.82;100.00
69630;BME280;56857;52.212;5.496;2023-04-06T02:23:10;101756.56;;;3.85;100.00
69630;BME280;56857;52.212;5.496;2023-04-06T02:25:35;101759.00;;;3.88;100.00
69630;BME280;56857;52.212;5.496;2023-04-06T02:28:01;101751.13;;;3.88;100.00
69630;BME280;56857;52.212;5.496;2023-04-06T02:30:26;101757.28;;;3.87;100.00
69630;BME280;56857;52.212;5.496;2023-04-06T02:32:51;101751.00;;;3.89;100.00
69630;BME280;56857;52.212;5.496;2023-04-06T02:35:17;101746.50;;;3.91;100.00
69630;BME280;56857;52.212;5.496;2023-04-06T02:37:43;101744.81;;;3.90;100.00
69630;BME280;56857;52.212;5.496;2023-04-06T02:40:09;101750.91;;;3.91;100.00
69630;BME280;56857;52.212;5.496;2023-04-06T02:42:34;101738.53;;;3.93;100.00
69630;BME280;56857;52.212;5.496;2023-04-06T02:44:59;101740.44;;;3.91;100.00
69630;BME280;56857;52.212;5.496;2023-04-06T02:47:25;101739.56;;;3.90;100.00
69630;BME280;56857;52.212;5.496;2023-04-06T02:49:50;101735.38;;;3.88;100.00
69630;BME280;56857;52.212;5.496;2023-04-06T02:52:15;101735.19;;;3.91;100.00
69630;BME280;56857;52.212;5.496;2023-04-06T02:54:41;101732.31;;;3.94;100.00
69630;BME280;56857;52.212;5.496;2023-04-06T02:57:07;101732.22;;;3.95;100.00
69630;BME280;56857;52.212;5.496;2023-04-06T02:59:33;101730.66;;;3.93;100.00
69630;BME280;56857;52.212;5.496;2023-04-06T03:01:58;101723.09;;;3.88;100.00
69630;BME280;56857;52.212;5.496;2023-04-06T03:04:23;101719.66;;;3.88;100.00
69630;BME280;56857;52.212;5.496;2023-04-06T03:06:48;101720.78;;;3.84;100.00
69630;BME280;56857;52.212;5.496;2023-04-06T03:09:14;101719.72;;;3.86;100.00
69630;BME280;56857;52.212;5.496;2023-04-06T03:11:39;101719.66;;;3.88;100.00
69630;BME280;56857;52.212;5.496;2023-04-06T03:14:05;101703.59;;;3.92;100.00
69630;BME280;56857;52.212;5.496;2023-04-06T03:16:30;101719.09;;;3.95;100.00
69630;BME280;56857;52.212;5.496;2023-04-06T03:18:55;101711.25;;;3.95;100.00
69630;BME280;56857;52.212;5.496;2023-04-06T03:21:21;101710.19;;;3.98;100.00
69630;BME280;56857;52.212;5.496;2023-04-06T03:23:46;101710.19;;;3.98;100.00
69630;BME280;56857;52.212;5.496;2023-04-06T03:26:11;101710.00;;;4.01;100.00
69630;BME280;56857;52.212;5.496;2023-04-06T03:28:37;101704.53;;;4.04;100.00
69630;BME280;56857;52.212;5.496;2023-04-06T03:31:02;101707.03;;;4.06;100.00
69630;BME280;56857;52.212;5.496;2023-04-06T03:33:27;101699.91;;;4.08;100.00
69630;BME280;56857;52.212;5.496;2023-04-06T03:35:53;101702.41;;;4.09;100.00
69630;BME280;56857;52.212;5.496;2023-04-06T03:38:19;101699.56;;;4.12;100.00
69630;BME280;56857;52.212;5.496;2023-04-06T03:40:44;101700.94;;;4.18;100.00
69630;BME280;56857;52.212;5.496;2023-04-06T03:43:10;101691.91;;;4.22;100.00
69630;BME280;56857;52.212;5.496;2023-04-06T03:45:35;101687.81;;;4.18;100.00
69630;BME280;56857;52.212;5.496;2023-04-06T03:48:00;101690.34;;;4.20;100.00
69630;BME280;56857;52.212;5.496;2023-04-06T03:50:26;101679.72;;;4.21;100.00
69630;BME280;56857;52.212;5.496;2023-04-06T03:52:51;101680.56;;;4.22;100.00
69630;BME280;56857;52.212;5.496;2023-04-06T03:55:16;101680.47;;;4.23;100.00
69630;BME280;56857;52.212;5.496;2023-04-06T03:57:42;101674.19;;;4.26;100.00
69630;BME280;56857;52.212;5.496;2023-04-06T04:00:08;101677.50;;;4.28;100.00
69630;BME280;56857;52.212;5.496;2023-04-06T04:02:33;101670.25;;;4.31;100.00
69630;BME280;56857;52.212;5.496;2023-04-06T04:04:59;101671.97;;;4.32;100.00
69630;BME280;56857;52.212;5.496;2023-04-06T04:07:24;101676.25;;;4.33;100.00
69630;BME280;56857;52.212;5.496;2023-04-06T04:09:49;101678.88;;;4.33;100.00
69630;BME280;56857;52.212;5.496;2023-04-06T04:12:15;101675.41;;;4.33;100.00
69630;BME280;56857;52.212;5.496;2023-04-06T04:14:40;101675.41;;;4.33;100.00
69630;BME280;56857;52.212;5.496;2023-04-06T04:17:05;101679.84;;;4.32;100.00
69630;BME280;56857;52.212;5.496;2023-04-06T04:19:33;101673.63;;;4.33;100.00
69630;BME280;56857;52.212;5.496;2023-04-06T04:21:59;101677.09;;;4.34;100.00
69630;BME280;56857;52.212;5.496;2023-04-06T04:24:24;101678.88;;;4.33;100.00
69630;BME280;56857;52.212;5.496;2023-04-06T04:26:49;101674.47;;;4.34;100.00
69630;BME280;56857;52.212;5.496;2023-04-06T04:29:15;101681.38;;;4.35;100.00
69630;BME280;56857;52.212;5.496;2023-04-06T04:31:40;101676.34;;;4.32;100.00
69630;BME280;56857;52.212;5.496;2023-04-06T04:34:05;101685.16;;;4.31;100.00
69630;BME280;56857;52.212;5.496;2023-04-06T04:36:31;101684.47;;;4.29;100.00
69630;BME280;56857;52.212;5.496;2023-04-06T04:38:56;101685.16;;;4.31;100.00
69630;BME280;56857;52.212;5.496;2023-04-06T04:41:21;101673.84;;;4.30;100.00
69630;BME280;56857;52.212;5.496;2023-04-06T04:43:47;101673.22;;;4.27;100.00
69630;BME280;56857;52.212;5.496;2023-04-06T04:46:12;101677.09;;;4.21;100.00
69630;BME280;56857;52.212;5.496;2023-04-06T04:48:37;101672.91;;;4.18;100.00
69630;BME280;56857;52.212;5.496;2023-04-06T04:51:04;101675.75;;;4.15;100.00
69630;BME280;56857;52.212;5.496;2023-04-06T04:53:29;101673.25;;;4.14;100.00
69630;BME280;56857;52.212;5.496;2023-04-06T04:55:54;101672.50;;;4.12;100.00
69630;BME280;56857;52.212;5.496;2023-04-06T04:58:20;101677.13;;;4.08;100.00
69630;BME280;56857;52.212;5.496;2023-04-06T05:00:46;101674.63;;;4.07;100.00
69630;BME280;56857;52.212;5.496;2023-04-06T05:03:21;101674.94;;;4.02;100.00
69630;BME280;56857;52.212;5.496;2023-04-06T05:05:47;101669.69;;;4.02;100.00
69630;BME280;56857;52.212;5.496;2023-04-06T05:08:15;101669.81;;;4.01;100.00
69630;BME280;56857;52.212;5.496;2023-04-06T05:10:40;101673.25;;;4.01;100.00
69630;BME280;56857;52.212;5.496;2023-04-06T05:13:06;101665.47;;;4.00;100.00
69630;BME280;56857;52.212;5.496;2023-04-06T05:15:31;101664.66;;;3.99;100.00
69630;BME280;56857;52.212;5.496;2023-04-06T05:17:57;101670.84;;;3.98;100.00
69630;BME280;56857;52.212;5.496;2023-04-06T05:20:22;101663.91;;;3.97;100.00
69630;BME280;56857;52.212;5.496;2023-04-06T05:22:47;101664.66;;;3.99;100.00
69630;BME280;56857;52.212;5.496;2023-04-06T05:25:13;101654.97;;;4.00;100.00
69630;BME280;56857;52.212;5.496;2023-04-06T05:27:38;101659.41;;;3.99;100.00
69630;BME280;56857;52.212;5.496;2023-04-06T05:30:05;101664.34;;;4.04;100.00
69630;BME280;56857;52.212;5.496;2023-04-06T05:32:31;101662.56;;;4.04;100.00
69630;BME280;56857;52.212;5.496;2023-04-06T05:34:56;101657.94;;;4.08;100.00
69630;BME280;56857;52.212;5.496;2023-04-06T05:37:22;101648.06;;;4.11;100.00
69630;BME280;56857;52.212;5.496;2023-04-06T05:39:47;101653.19;;;4.13;100.00
69630;BME280;56857;52.212;5.496;2023-04-06T05:42:14;101650.47;;;4.14;100.00
69630;BME280;56857;52.212;5.496;2023-04-06T05:44:39;101646.78;;;4.17;100.00
69630;BME280;56857;52.212;5.496;2023-04-06T05:47:04;101646.66;;;4.18;100.00
69630;BME280;56857;52.212;5.496;2023-04-06T05:49:29;101648.16;;;4.23;100.00
69630;BME280;56857;52.212;5.496;2023-04-06T05:51:55;101651.28;;;4.28;100.00
69630;BME280;56857;52.212;5.496;2023-04-06T05:54:20;101647.59;;;4.30;100.00
69630;BME280;56857;52.212;5.496;2023-04-06T05:56:45;101645.50;;;4.35;100.00
69630;BME280;56857;52.212;5.496;2023-04-06T05:59:11;101651.34;;;4.39;100.00
69630;BME280;56857;52.212;5.496;2023-04-06T06:01:36;101644.72;;;4.46;100.00
69630;BME280;56857;52.212;5.496;2023-04-06T06:04:01;101649.53;;;4.52;100.00
69630;BME280;56857;52.212;5.496;2023-04-06T06:06:28;101643.09;;;4.56;100.00
69630;BME280;56857;52.212;5.496;2023-04-06T06:08:53;101650.75;;;4.59;100.00
69630;BME280;56857;52.212;5.496;2023-04-06T06:11:18;101646.03;;;4.64;100.00
69630;BME280;56857;52.212;5.496;2023-04-06T06:13:44;101644.22;;;4.65;100.00
69630;BME280;56857;52.212;5.496;2023-04-06T06:16:09;101638.75;;;4.68;100.00
69630;BME280;56857;52.212;5.496;2023-04-06T06:18:34;101639.38;;;4.72;100.00
69630;BME280;56857;52.212;5.496;2023-04-06T06:21:00;101639.13;;;4.75;100.00
69630;BME280;56857;52.212;5.496;2023-04-06T06:23:25;101641.44;;;4.79;100.00
69630;BME280;56857;52.212;5.496;2023-04-06T06:25:50;101640.03;;;4.86;100.00
69630;BME280;56857;52.212;5.496;2023-04-06T06:28:16;101638.75;;;4.92;100.00
69630;BME280;56857;52.212;5.496;2023-04-06T06:30:42;101642.81;;;4.96;100.00
69630;BME280;56857;52.212;5.496;2023-04-06T06:33:07;101639.25;;;4.97;100.00
69630;BME280;56857;52.212;5.496;2023-04-06T06:35:32;101640.94;;;4.98;100.00
69630;BME280;56857;52.212;5.496;2023-04-06T06:37:57;101640.72;;;5.01;100.00
69630;BME280;56857;52.212;5.496;2023-04-06T06:40:23;101645.00;;;5.02;100.00
69630;BME280;56857;52.212;5.496;2023-04-06T06:42:49;101639.75;;;5.02;100.00
69630;BME280;56857;52.212;5.496;2023-04-06T06:45:14;101640.34;;;5.06;100.00
69630;BME280;56857;52.212;5.496;2023-04-06T06:47:40;101638.22;;;5.11;100.00
69630;BME280;56857;52.212;5.496;2023-04-06T06:50:06;101639.44;;;5.18;100.00
69630;BME280;56857;52.212;5.496;2023-04-06T06:52:31;101646.25;;;5.21;100.00
69630;BME280;56857;52.212;5.496;2023-04-06T06:54:56;101647.47;;;5.28;100.00
69630;BME280;56857;52.212;5.496;2023-04-06T06:57:22;101636.59;;;5.32;100.00
69630;BME280;56857;52.212;5.496;2023-04-06T06:59:47;101635.91;;;5.42;100.00
69630;BME280;56857;52.212;5.496;2023-04-06T07:02:14;101638.56;;;5.53;100.00
69630;BME280;56857;52.212;5.496;2023-04-06T07:04:39;101639.66;;;5.62;100.00
69630;BME280;56857;52.212;5.496;2023-04-06T07:07:05;101632.75;;;5.72;100.00
69630;BME280;56857;52.212;5.496;2023-04-06T07:09:30;101631.91;;;5.82;100.00
69630;BME280;56857;52.212;5.496;2023-04-06T07:11:55;101638.25;;;5.91;100.00
69630;BME280;56857;52.212;5.496;2023-04-06T07:14:20;101640.28;;;5.99;100.00
69630;BME280;56857;52.212;5.496;2023-04-06T07:16:46;101636.25;;;6.06;100.00
69630;BME280;56857;52.212;5.496;2023-04-06T07:19:11;101638.25;;;6.14;100.00
69630;BME280;56857;52.212;5.496;2023-04-06T07:21:36;101635.03;;;6.21;100.00
69630;BME280;56857;52.212;5.496;2023-04-06T07:24:02;101640.06;;;6.24;100.00
69630;BME280;56857;52.212;5.496;2023-04-06T07:26:27;101627.75;;;6.25;100.00
69630;BME280;56857;52.212;5.496;2023-04-06T07:28:53;101632.28;;;6.23;100.00
69630;BME280;56857;52.212;5.496;2023-04-06T07:31:18;101634.06;;;6.22;100.00
69630;BME280;56857;52.212;5.496;2023-04-06T07:33:44;101634.06;;;6.22;100.00
69630;BME280;56857;52.212;5.496;2023-04-06T07:36:09;101633.72;;;6.16;100.00
69630;BME280;56857;52.212;5.496;2023-04-06T07:38:34;101626.53;;;6.18;100.00
69630;BME280;56857;52.212;5.496;2023-04-06T07:41:00;101628.22;;;6.19;100.00
69630;BME280;56857;52.212;5.496;2023-04-06T07:43:25;101626.41;;;6.19;100.00
69630;BME280;56857;52.212;5.496;2023-04-06T07:45:50;101629.06;;;6.19;100.00
69630;BME280;56857;52.212;5.496;2023-04-06T07:48:16;101627.00;;;6.23;100.00
69630;BME280;56857;52.212;5.496;2023-04-06T07:50:41;101629.28;;;6.28;100.00
69630;BME280;56857;52.212;5.496;2023-04-06T07:53:07;101629.88;;;6.31;100.00
69630;BME280;56857;52.212;5.496;2023-04-06T07:55:33;101629.63;;;6.34;100.00
69630;BME280;56857;52.212;5.496;2023-04-06T07:57:58;101627.13;;;6.33;100.00
69630;BME280;56857;52.212;5.496;2023-04-06T08:00:23;101632.97;;;6.36;100.00
69630;BME280;56857;52.212;5.496;2023-04-06T08:02:49;101623.75;;;6.42;100.00
69630;BME280;56857;52.212;5.496;2023-04-06T08:05:14;101621.84;;;6.44;100.00
69630;BME280;56857;52.212;5.496;2023-04-06T08:07:39;101627.56;;;6.49;100.00
69630;BME280;56857;52.212;5.496;2023-04-06T08:10:05;101619.53;;;6.50;100.00
69630;BME280;56857;52.212;5.496;2023-04-06T08:12:32;101620.97;;;6.55;100.00
69630;BME280;56857;52.212;5.496;2023-04-06T08:14:57;101625.63;;;6.62;100.00
69630;BME280;56857;52.212;5.496;2023-04-06T08:17:22;101631.34;;;6.67;100.00
69630;BME280;56857;52.212;5.496;2023-04-06T08:19:48;101628.84;;;6.66;100.00
69630;BME280;56857;52.212;5.496;2023-04-06T08:22:16;101631.00;;;6.61;100.00
69630;BME280;56857;52.212;5.496;2023-04-06T08:24:44;101629.34;;;6.60;100.00
69630;BME280;56857;52.212;5.496;2023-04-06T08:27:10;101630.03;;;6.62;100.00
69630;BME280;56857;52.212;5.496;2023-04-06T08:29:35;101630.41;;;6.68;100.00
69630;BME280;56857;52.212;5.496;2023-04-06T08:32:00;101624.03;;;6.71;100.00
69630;BME280;56857;52.212;5.496;2023-04-06T08:34:26;101630.72;;;6.75;100.00
69630;BME280;56857;52.212;5.496;2023-04-06T08:36:51;101630.34;;;6.80;100.00
69630;BME280;56857;52.212;5.496;2023-04-06T08:39:16;101620.38;;;6.83;100.00
69630;BME280;56857;52.212;5.496;2023-04-06T08:41:42;101616.81;;;6.84;100.00
69630;BME280;56857;52.212;5.496;2023-04-06T08:44:07;101624.47;;;6.87;100.00
69630;BME280;56857;52.212;5.496;2023-04-06T08:46:33;101620.03;;;6.88;100.00
69630;BME280;56857;52.212;5.496;2023-04-06T08:49:02;101615.69;;;6.87;100.00
69630;BME280;56857;52.212;5.496;2023-04-06T08:51:29;101618.47;;;6.85;100.00
69630;BME280;56857;52.212;5.496;2023-04-06T08:53:59;101611.28;;;6.87;100.00
69630;BME280;56857;52.212;5.496;2023-04-06T08:56:26;101605.47;;;6.93;100.00
69630;BME280;56857;52.212;5.496;2023-04-06T08:58:55;101602.59;;;6.96;100.00
69630;BME280;56857;52.212;5.496;2023-04-06T09:01:27;101606.91;;;6.97;100.00
69630;BME280;56857;52.212;5.496;2023-04-06T09:03:57;101606.78;;;6.99;100.00
69630;BME280;56857;52.212;5.496;2023-04-06T09:06:24;101607.00;;;7.07;100.00
69630;BME280;56857;52.212;5.496;2023-04-06T09:08:53;101612.59;;;7.14;100.00
69630;BME280;56857;52.212;5.496;2023-04-06T09:11:18;101611.81;;;7.23;100.00
69630;BME280;56857;52.212;5.496;2023-04-06T09:13:49;101625.06;;;7.33;100.00
69630;BME280;56857;52.212;5.496;2023-04-06T09:16:15;101618.44;;;7.38;100.00
69630;BME280;56857;52.212;5.496;2023-04-06T09:18:41;101622.50;;;7.42;100.00
69630;BME280;56857;52.212;5.496;2023-04-06T09:21:07;101618.25;;;7.51;100.00
69630;BME280;56857;52.212;5.496;2023-04-06T09:23:33;101619.13;;;7.61;100.00
69630;BME280;56857;52.212;5.496;2023-04-06T09:26:15;101622.63;;;7.72;100.00
69630;BME280;56857;52.212;5.496;2023-04-06T09:28:48;101622.38;;;7.75;100.00
69630;BME280;56857;52.212;5.496;2023-04-06T09:31:15;101621.16;;;7.79;100.00
69630;BME280;56857;52.212;5.496;2023-04-06T09:33:44;101625.78;;;7.86;100.00
69630;BME280;56857;52.212;5.496;2023-04-06T09:36:09;101625.69;;;7.98;100.00
69630;BME280;56857;52.212;5.496;2023-04-06T09:38:52;101627.78;;;8.04;100.00
69630;BME280;56857;52.212;5.496;2023-04-06T09:41:36;101622.56;;;8.13;100.00
69630;BME280;56857;52.212;5.496;2023-04-06T09:44:09;101610.47;;;8.21;100.00
69630;BME280;56857;52.212;5.496;2023-04-06T09:46:39;101616.03;;;8.27;100.00
69630;BME280;56857;52.212;5.496;2023-04-06T09:49:06;101611.59;;;8.28;100.00
69630;BME280;56857;52.212;5.496;2023-04-06T09:51:37;101615.78;;;8.30;100.00
69630;BME280;56857;52.212;5.496;2023-04-06T09:54:04;101616.59;;;8.31;100.00
69630;BME280;56857;52.212;5.496;2023-04-06T10:06:04;101616.97;;;8.57;100.00
69630;BME280;56857;52.212;5.496;2023-04-06T10:08:32;101620.47;;;8.67;100.00
69630;BME280;56857;52.212;5.496;2023-04-06T10:10:58;101622.84;;;8.80;100.00
69630;BME280;56857;52.212;5.496;2023-04-06T10:13:24;101620.03;;;8.91;100.00
69630;BME280;56857;52.212;5.496;2023-04-06T10:15:51;101622.69;;;9.01;100.00
69630;BME280;56857;52.212;5.496;2023-04-06T10:18:16;101624.50;;;9.10;100.00
69630;BME280;56857;52.212;5.496;2023-04-06T10:20:51;101618.34;;;9.19;100.00
69630;BME280;56857;52.212;5.496;2023-04-06T10:23:33;101622.69;;;9.30;100.00
69630;BME280;56857;52.212;5.496;2023-04-06T10:26:00;101622.66;;;9.40;100.00
69630;BME280;56857;52.212;5.496;2023-04-06T10:28:26;101619.28;;;9.47;100.00
69630;BME280;56857;52.212;5.496;2023-04-06T10:30:59;101616.59;;;9.57;100.00
69630;BME280;56857;52.212;5.496;2023-04-06T10:33:26;101619.66;;;9.62;100.00
69630;BME280;56857;52.212;5.496;2023-04-06T10:35:54;101622.03;;;9.65;100.00
69630;BME280;56857;52.212;5.496;2023-04-06T10:38:20;101622.84;;;9.66;100.00
69630;BME280;56857;52.212;5.496;2023-04-06T10:40:45;101625.34;;;9.67;100.00
69630;BME280;56857;52.212;5.496;2023-04-06T10:43:13;101622.44;;;9.61;100.00
69630;BME280;56857;52.212;5.496;2023-04-06T10:45:39;101610.47;;;9.57;100.00
69630;BME280;56857;52.212;5.496;2023-04-06T10:48:17;101608.41;;;9.50;100.00
69630;BME280;56857;52.212;5.496;2023-04-06T10:50:52;101607.72;;;9.48;100.00
69630;BME280;56857;52.212;5.496;2023-04-06T10:53:25;101607.88;;;9.47;100.00
69630;BME280;56857;52.212;5.496;2023-04-06T10:55:52;101609.53;;;9.48;100.00
69630;BME280;56857;52.212;5.496;2023-04-06T10:58:19;101608.00;;;9.45;100.00
69630;BME280;56857;52.212;5.496;2023-04-06T11:00:45;101613.84;;;9.39;100.00
69630;BME280;56857;52.212;5.496;2023-04-06T11:03:11;101609.84;;;9.35;100.00
69630;BME280;56857;52.212;5.496;2023-04-06T11:05:36;101607.63;;;9.31;100.00
69630;BME280;56857;52.212;5.496;2023-04-06T11:08:01;101608.03;;;9.26;100.00
69630;BME280;56857;52.212;5.496;2023-04-06T11:10:27;101605.13;;;9.19;100.00
69630;BME280;56857;52.212;5.496;2023-04-06T11:12:56;101608.06;;;9.16;100.00
69630;BME280;56857;52.212;5.496;2023-04-06T11:15:21;101611.81;;;9.14;100.00
69630;BME280;56857;52.212;5.496;2023-04-06T11:17:47;101606.13;;;9.09;100.00
69630;BME280;56857;52.212;5.496;2023-04-06T11:20:12;101600.56;;;9.02;100.00
69630;BME280;56857;52.212;5.496;2023-04-06T11:22:53;101608.22;;;8.95;100.00
69630;BME280;56857;52.212;5.496;2023-04-06T11:25:19;101609.47;;;8.91;100.00
69630;BME280;56857;52.212;5.496;2023-04-06T11:27:45;101604.19;;;8.81;100.00
69630;BME280;56857;52.212;5.496;2023-04-06T11:30:11;101601.41;;;8.73;100.00
69630;BME280;56857;52.212;5.496;2023-04-06T11:32:41;101602.78;;;8.68;100.00
69630;BME280;56857;52.212;5.496;2023-04-06T11:35:07;101596.97;;;8.64;100.00
69630;BME280;56857;52.212;5.496;2023-04-06T11:37:32;101608.19;;;8.56;100.00
69630;BME280;56857;52.212;5.496;2023-04-06T11:39:58;101604.16;;;8.52;100.00
69630;BME280;56857;52.212;5.496;2023-04-06T11:42:28;101594.84;;;8.48;100.00
69630;BME280;56857;52.212;5.496;2023-04-06T11:44:58;101588.72;;;8.48;100.00
69630;BME280;56857;52.212;5.496;2023-04-06T11:47:30;101590.69;;;8.46;100.00
69630;BME280;56857;52.212;5.496;2023-04-06T11:49:56;101589.13;;;8.43;100.00
69630;BME280;56857;52.212;5.496;2023-04-06T11:52:30;101582.47;;;8.39;100.00
69630;BME280;56857;52.212;5.496;2023-04-06T11:54:55;101585.34;;;8.36;100.00
69630;BME280;56857;52.212;5.496;2023-04-06T11:57:21;101585.88;;;8.30;100.00
69630;BME280;56857;52.212;5.496;2023-04-06T11:59:47;101585.59;;;8.23;100.00
69630;BME280;56857;52.212;5.496;2023-04-06T12:02:12;101580.44;;;8.22;100.00
69630;BME280;56857;52.212;5.496;2023-04-06T12:04:38;101583.78;;;8.24;100.00
69630;BME280;56857;52.212;5.496;2023-04-06T12:07:04;101577.53;;;8.25;100.00
69630;BME280;56857;52.212;5.496;2023-04-06T12:09:30;101576.81;;;8.23;100.00
69630;BME280;56857;52.212;5.496;2023-04-06T12:11:55;101578.91;;;8.19;100.00
69630;BME280;56857;52.212;5.496;2023-04-06T12:14:21;101574.88;;;8.25;100.00
69630;BME280;56857;52.212;5.496;2023-04-06T12:16:46;101573.91;;;8.26;100.00
69630;BME280;56857;52.212;5.496;2023-04-06T12:19:12;101566.84;;;8.26;100.00
69630;BME280;56857;52.212;5.496;2023-04-06T12:21:37;101559.75;;;8.27;100.00
69630;BME280;56857;52.212;5.496;2023-04-06T12:24:04;101572.25;;;8.25;100.00
69630;BME280;56857;52.212;5.496;2023-04-06T12:26:30;101561.69;;;8.25;100.00
69630;BME280;56857;52.212;5.496;2023-04-06T12:28:56;101567.25;;;8.31;100.00
69630;BME280;56857;52.212;5.496;2023-04-06T12:31:22;101564.84;;;8.19;100.00
69630;BME280;56857;52.212;5.496;2023-04-06T12:33:49;101570.59;;;8.24;100.00
69630;BME280;56857;52.212;5.496;2023-04-06T12:36:16;101566.56;;;8.29;100.00
69630;BME280;56857;52.212;5.496;2023-04-06T12:38:41;101557.38;;;8.24;100.00
69630;BME280;56857;52.212;5.496;2023-04-06T12:41:07;101554.03;;;8.22;100.00
69630;BME280;56857;52.212;5.496;2023-04-06T12:43:32;101548.34;;;8.26;100.00
69630;BME280;56857;52.212;5.496;2023-04-06T12:45:58;101549.84;;;8.29;100.00
69630;BME280;56857;52.212;5.496;2023-04-06T12:48:23;101549.56;;;8.22;100.00
69630;BME280;56857;52.212;5.496;2023-04-06T12:50:59;101548.19;;;8.18;100.00
69630;BME280;56857;52.212;5.496;2023-04-06T12:53:25;101547.63;;;8.15;100.00